sensor_id;sensor_type;location;lat;lon;timestamp;P1;P2;P0
67714;PMS7003;54505;44.022;20.458;2022-12-31T00:02:04;240.25;197.00;113.25
67714;PMS7003;54505;44.022;20.458;2022-12-31T00:04:30;214.75;171.75;103.50
67714;PMS7003;54505;44.022;20.458;2022-12-31T00:06:56;236.25;198.00;114.50
67714;PMS7003;54505;44.022;20.458;2022-12-31T00:09:21;239.00;206.00;120.50
67714;PMS7003;54505;44.022;20.458;2022-12-31T00:11:47;240.75;200.00;112.75
67714;PMS7003;54505;44.022;20.458;2022-12-31T00:14:13;280.75;231.00;132.50
67714;PMS7003;54505;44.022;20.458;2022-12-31T00:16:39;307.00;255.50;136.50
67714;PMS7003;54505;44.022;20.458;2022-12-31T00:19:06;261.75;218.50;125.50
67714;PMS7003;54505;44.022;20.458;2022-12-31T00:21:33;234.00;180.25;104.75
67714;PMS7003;54505;44.022;20.458;2022-12-31T00:23:59;245.75;195.75;108.25
67714;PMS7003;54505;44.022;20.458;2022-12-31T00:26:27;271.75;225.50;130.25
67714;PMS7003;54505;44.022;20.458;2022-12-31T00:28:54;222.25;184.50;116.75
67714;PMS7003;54505;44.022;20.458;2022-12-31T00:31:20;262.25;226.75;127.75
67714;PMS7003;54505;44.022;20.458;2022-12-31T00:33:46;290.50;237.00;128.75
67714;PMS7003;54505;44.022;20.458;2022-12-31T00:36:13;259.25;215.75;121.75
67714;PMS7003;54505;44.022;20.458;2022-12-31T00:38:40;271.75;231.00;129.25
67714;PMS7003;54505;44.022;20.458;2022-12-31T00:41:06;258.00;208.75;120.75
67714;PMS7003;54505;44.022;20.458;2022-12-31T00:43:32;318.75;248.00;137.25
67714;PMS7003;54505;44.022;20.458;2022-12-31T00:45:58;314.25;256.75;138.25
67714;PMS7003;54505;44.022;20.458;2022-12-31T00:48:23;322.25;265.75;143.50
67714;PMS7003;54505;44.022;20.458;2022-12-31T00:50:49;345.75;278.50;150.75
67714;PMS7003;54505;44.022;20.458;2022-12-31T00:53:15;303.75;259.75;149.25
67714;PMS7003;54505;44.022;20.458;2022-12-31T00:55:40;332.75;268.00;151.75
67714;PMS7003;54505;44.022;20.458;2022-12-31T00:58:06;298.25;233.50;136.00
67714;PMS7003;54505;44.022;20.458;2022-12-31T01:00:32;278.00;232.25;135.75
67714;PMS7003;54505;44.022;20.458;2022-12-31T01:02:58;269.75;222.75;127.25
67714;PMS7003;54505;44.022;20.458;2022-12-31T01:05:24;282.00;226.00;132.25
67714;PMS7003;54505;44.022;20.458;2022-12-31T01:07:49;325.00;267.75;150.25
67714;PMS7003;54505;44.022;20.458;2022-12-31T01:10:15;248.75;214.25;125.50
67714;PMS7003;54505;44.022;20.458;2022-12-31T01:13:00;252.75;206.75;120.25
67714;PMS7003;54505;44.022;20.458;2022-12-31T01:15:26;253.75;215.50;123.00
67714;PMS7003;54505;44.022;20.458;2022-12-31T01:17:52;253.00;208.75;115.75
67714;PMS7003;54505;44.022;20.458;2022-12-31T01:20:17;212.50;180.00;108.50
67714;PMS7003;54505;44.022;20.458;2022-12-31T01:22:43;239.50;191.00;111.00
67714;PMS7003;54505;44.022;20.458;2022-12-31T01:25:09;180.50;144.75;86.00
67714;PMS7003;54505;44.022;20.458;2022-12-31T01:27:34;179.75;153.75;92.25
67714;PMS7003;54505;44.022;20.458;2022-12-31T01:30:00;180.75;148.25;91.25
67714;PMS7003;54505;44.022;20.458;2022-12-31T01:32:25;185.00;158.25;95.25
67714;PMS7003;54505;44.022;20.458;2022-12-31T01:34:51;178.75;147.00;89.75
67714;PMS7003;54505;44.022;20.458;2022-12-31T01:37:17;180.00;152.75;87.50
67714;PMS7003;54505;44.022;20.458;2022-12-31T01:39:42;183.50;149.25;87.25
67714;PMS7003;54505;44.022;20.458;2022-12-31T01:42:09;162.25;138.25;82.25
67714;PMS7003;54505;44.022;20.458;2022-12-31T01:47:04;178.50;144.00;85.50
67714;PMS7003;54505;44.022;20.458;2022-12-31T01:52:06;146.00;125.75;78.75
67714;PMS7003;54505;44.022;20.458;2022-12-31T01:54:35;164.75;144.50;85.50
67714;PMS7003;54505;44.022;20.458;2022-12-31T01:57:02;163.50;138.25;80.25
67714;PMS7003;54505;44.022;20.458;2022-12-31T01:59:29;178.75;146.00;78.50
67714;PMS7003;54505;44.022;20.458;2022-12-31T02:01:55;131.25;110.00;69.00
67714;PMS7003;54505;44.022;20.458;2022-12-31T02:04:22;122.25;107.75;66.00
67714;PMS7003;54505;44.022;20.458;2022-12-31T02:06:51;125.00;100.25;51.00
67714;PMS7003;54505;44.022;20.458;2022-12-31T02:09:18;191.00;154.50;91.75
67714;PMS7003;54505;44.022;20.458;2022-12-31T02:11:44;208.25;174.50;104.75
67714;PMS7003;54505;44.022;20.458;2022-12-31T02:14:12;236.25;191.50;111.50
67714;PMS7003;54505;44.022;20.458;2022-12-31T02:19:10;270.75;219.75;127.25
67714;PMS7003;54505;44.022;20.458;2022-12-31T02:32:03;195.25;151.00;84.00
67714;PMS7003;54505;44.022;20.458;2022-12-31T02:34:33;171.50;138.25;83.25
67714;PMS7003;54505;44.022;20.458;2022-12-31T02:37:02;239.75;194.25;107.75
67714;PMS7003;54505;44.022;20.458;2022-12-31T02:39:28;225.00;188.75;104.25
67714;PMS7003;54505;44.022;20.458;2022-12-31T02:41:55;221.00;181.75;104.00
67714;PMS7003;54505;44.022;20.458;2022-12-31T02:51:55;221.50;188.00;102.25
67714;PMS7003;54505;44.022;20.458;2022-12-31T03:02:21;193.50;166.75;94.00
67714;PMS7003;54505;44.022;20.458;2022-12-31T03:04:53;212.25;182.00;101.25
67714;PMS7003;54505;44.022;20.458;2022-12-31T03:07:22;220.50;187.00;103.00
67714;PMS7003;54505;44.022;20.458;2022-12-31T03:09:49;194.50;163.50;93.50
67714;PMS7003;54505;44.022;20.458;2022-12-31T03:12:15;185.50;156.50;91.50
67714;PMS7003;54505;44.022;20.458;2022-12-31T03:15:00;173.25;142.00;81.75
67714;PMS7003;54505;44.022;20.458;2022-12-31T03:17:26;174.50;149.25;85.00
67714;PMS7003;54505;44.022;20.458;2022-12-31T03:19:52;185.50;145.00;87.25
67714;PMS7003;54505;44.022;20.458;2022-12-31T03:22:37;156.25;139.75;82.50
67714;PMS7003;54505;44.022;20.458;2022-12-31T03:25:08;167.00;140.00;85.00
67714;PMS7003;54505;44.022;20.458;2022-12-31T03:27:53;167.50;136.50;84.00
67714;PMS7003;54505;44.022;20.458;2022-12-31T03:30:20;162.75;133.50;78.50
67714;PMS7003;54505;44.022;20.458;2022-12-31T03:32:46;166.00;139.25;80.25
67714;PMS7003;54505;44.022;20.458;2022-12-31T03:35:12;135.25;117.25;71.75
67714;PMS7003;54505;44.022;20.458;2022-12-31T03:37:39;148.50;118.50;71.50
67714;PMS7003;54505;44.022;20.458;2022-12-31T03:40:06;136.00;115.25;71.25
67714;PMS7003;54505;44.022;20.458;2022-12-31T03:42:32;142.50;117.25;66.50
67714;PMS7003;54505;44.022;20.458;2022-12-31T03:44:58;141.50;112.25;69.00
67714;PMS7003;54505;44.022;20.458;2022-12-31T03:47:24;123.25;105.25;64.00
67714;PMS7003;54505;44.022;20.458;2022-12-31T03:49:50;129.25;107.50;70.50
67714;PMS7003;54505;44.022;20.458;2022-12-31T03:52:15;122.25;111.00;68.25
67714;PMS7003;54505;44.022;20.458;2022-12-31T03:54:41;139.75;114.50;71.00
67714;PMS7003;54505;44.022;20.458;2022-12-31T03:57:06;145.75;117.25;73.50
67714;PMS7003;54505;44.022;20.458;2022-12-31T03:59:32;130.25;107.25;66.25
67714;PMS7003;54505;44.022;20.458;2022-12-31T04:01:58;124.50;106.00;65.00
67714;PMS7003;54505;44.022;20.458;2022-12-31T04:04:24;140.00;114.00;68.25
67714;PMS7003;54505;44.022;20.458;2022-12-31T04:06:49;128.50;105.25;61.75
67714;PMS7003;54505;44.022;20.458;2022-12-31T04:09:15;112.75;88.00;58.25
67714;PMS7003;54505;44.022;20.458;2022-12-31T04:11:41;127.25;102.50;63.00
67714;PMS7003;54505;44.022;20.458;2022-12-31T04:14:07;130.50;108.50;66.00
67714;PMS7003;54505;44.022;20.458;2022-12-31T04:16:32;123.25;102.25;61.00
67714;PMS7003;54505;44.022;20.458;2022-12-31T04:18:58;136.00;106.50;68.50
67714;PMS7003;54505;44.022;20.458;2022-12-31T04:21:24;132.25;105.50;65.00
67714;PMS7003;54505;44.022;20.458;2022-12-31T04:23:50;144.00;106.75;67.50
67714;PMS7003;54505;44.022;20.458;2022-12-31T04:26:15;136.75;121.75;71.75
67714;PMS7003;54505;44.022;20.458;2022-12-31T04:28:41;187.75;154.50;89.25
67714;PMS7003;54505;44.022;20.458;2022-12-31T04:31:06;184.75;152.50;84.75
67714;PMS7003;54505;44.022;20.458;2022-12-31T04:33:32;188.00;147.50;89.50
67714;PMS7003;54505;44.022;20.458;2022-12-31T04:36:01;152.00;122.00;71.75
67714;PMS7003;54505;44.022;20.458;2022-12-31T04:38:27;147.75;120.00;69.75
67714;PMS7003;54505;44.022;20.458;2022-12-31T04:40:54;156.50;121.00;79.25
67714;PMS7003;54505;44.022;20.458;2022-12-31T04:43:38;175.00;138.75;87.25
67714;PMS7003;54505;44.022;20.458;2022-12-31T04:46:04;209.25;172.25;100.75
67714;PMS7003;54505;44.022;20.458;2022-12-31T04:48:30;206.00;163.25;94.00
67714;PMS7003;54505;44.022;20.458;2022-12-31T04:50:55;207.75;171.50;91.50
67714;PMS7003;54505;44.022;20.458;2022-12-31T04:53:21;220.25;182.25;103.50
67714;PMS7003;54505;44.022;20.458;2022-12-31T04:55:48;197.00;163.25;100.25
67714;PMS7003;54505;44.022;20.458;2022-12-31T04:58:14;209.00;176.00;99.75
67714;PMS7003;54505;44.022;20.458;2022-12-31T05:00:40;191.50;156.50;90.50
67714;PMS7003;54505;44.022;20.458;2022-12-31T05:03:06;182.00;149.00;88.25
67714;PMS7003;54505;44.022;20.458;2022-12-31T05:05:31;180.25;151.25;92.25
67714;PMS7003;54505;44.022;20.458;2022-12-31T05:07:57;195.50;154.00;92.50
67714;PMS7003;54505;44.022;20.458;2022-12-31T05:10:23;179.00;156.50;91.75
67714;PMS7003;54505;44.022;20.458;2022-12-31T05:12:49;172.50;139.50;84.00
67714;PMS7003;54505;44.022;20.458;2022-12-31T05:15:14;130.25;104.75;65.50
67714;PMS7003;54505;44.022;20.458;2022-12-31T05:17:40;119.75;101.50;64.25
67714;PMS7003;54505;44.022;20.458;2022-12-31T05:20:05;112.25;94.75;54.75
67714;PMS7003;54505;44.022;20.458;2022-12-31T05:22:32;118.50;97.25;58.25
67714;PMS7003;54505;44.022;20.458;2022-12-31T05:24:58;118.50;98.75;53.50
67714;PMS7003;54505;44.022;20.458;2022-12-31T05:27:27;135.00;109.50;65.50
67714;PMS7003;54505;44.022;20.458;2022-12-31T05:29:55;125.50;103.75;62.75
67714;PMS7003;54505;44.022;20.458;2022-12-31T05:32:21;114.75;97.25;59.50
67714;PMS7003;54505;44.022;20.458;2022-12-31T05:34:46;151.00;122.50;70.50
67714;PMS7003;54505;44.022;20.458;2022-12-31T05:37:12;141.00;115.75;74.25
67714;PMS7003;54505;44.022;20.458;2022-12-31T05:39:37;154.75;123.00;72.00
67714;PMS7003;54505;44.022;20.458;2022-12-31T05:42:03;149.00;125.00;72.50
67714;PMS7003;54505;44.022;20.458;2022-12-31T05:44:29;153.25;122.50;79.50
67714;PMS7003;54505;44.022;20.458;2022-12-31T05:46:54;174.75;139.00;85.75
67714;PMS7003;54505;44.022;20.458;2022-12-31T05:49:20;110.75;88.25;47.25
67714;PMS7003;54505;44.022;20.458;2022-12-31T05:51:46;149.00;124.00;68.25
67714;PMS7003;54505;44.022;20.458;2022-12-31T05:54:11;152.25;135.50;81.00
67714;PMS7003;54505;44.022;20.458;2022-12-31T05:56:37;155.00;128.75;79.50
67714;PMS7003;54505;44.022;20.458;2022-12-31T05:59:03;168.00;142.75;84.00
67714;PMS7003;54505;44.022;20.458;2022-12-31T06:01:29;152.25;128.50;81.75
67714;PMS7003;54505;44.022;20.458;2022-12-31T06:03:54;165.25;137.75;77.50
67714;PMS7003;54505;44.022;20.458;2022-12-31T06:06:20;166.50;142.75;86.25
67714;PMS7003;54505;44.022;20.458;2022-12-31T06:08:49;181.00;153.00;87.25
67714;PMS7003;54505;44.022;20.458;2022-12-31T06:11:15;190.00;154.00;95.50
67714;PMS7003;54505;44.022;20.458;2022-12-31T06:13:40;165.50;140.50;80.25
67714;PMS7003;54505;44.022;20.458;2022-12-31T06:16:07;189.50;154.75;95.00
67714;PMS7003;54505;44.022;20.458;2022-12-31T06:18:33;197.00;157.50;84.50
67714;PMS7003;54505;44.022;20.458;2022-12-31T06:20:59;194.00;163.50;91.25
67714;PMS7003;54505;44.022;20.458;2022-12-31T06:23:24;193.50;166.00;102.00
67714;PMS7003;54505;44.022;20.458;2022-12-31T06:25:50;195.25;158.75;92.75
67714;PMS7003;54505;44.022;20.458;2022-12-31T06:28:16;174.25;132.25;81.25
67714;PMS7003;54505;44.022;20.458;2022-12-31T06:30:42;177.50;147.50;88.00
67714;PMS7003;54505;44.022;20.458;2022-12-31T06:33:07;157.50;122.00;83.00
67714;PMS7003;54505;44.022;20.458;2022-12-31T06:35:33;193.75;167.00;97.50
67714;PMS7003;54505;44.022;20.458;2022-12-31T06:37:58;212.00;172.75;100.25
67714;PMS7003;54505;44.022;20.458;2022-12-31T06:40:24;190.25;169.50;97.75
67714;PMS7003;54505;44.022;20.458;2022-12-31T06:42:49;188.50;162.50;98.25
67714;PMS7003;54505;44.022;20.458;2022-12-31T06:45:15;204.75;174.75;105.25
67714;PMS7003;54505;44.022;20.458;2022-12-31T06:47:41;205.00;177.00;105.50
67714;PMS7003;54505;44.022;20.458;2022-12-31T06:50:07;211.00;176.00;105.50
67714;PMS7003;54505;44.022;20.458;2022-12-31T06:52:32;226.50;192.00;119.50
67714;PMS7003;54505;44.022;20.458;2022-12-31T06:54:58;187.25;147.75;75.00
67714;PMS7003;54505;44.022;20.458;2022-12-31T06:57:25;196.00;166.50;99.25
67714;PMS7003;54505;44.022;20.458;2022-12-31T06:59:51;260.25;212.00;120.50
67714;PMS7003;54505;44.022;20.458;2022-12-31T07:02:22;247.25;211.25;121.75
67714;PMS7003;54505;44.022;20.458;2022-12-31T07:07:37;318.25;251.50;143.50
67714;PMS7003;54505;44.022;20.458;2022-12-31T07:20:11;313.00;261.00;148.25
67714;PMS7003;54505;44.022;20.458;2022-12-31T07:22:37;303.75;259.50;149.00
67714;PMS7003;54505;44.022;20.458;2022-12-31T07:25:03;310.00;259.25;147.50
67714;PMS7003;54505;44.022;20.458;2022-12-31T07:30:08;171.25;148.50;86.00
67714;PMS7003;54505;44.022;20.458;2022-12-31T07:43:12;215.25;187.25;109.75
67714;PMS7003;54505;44.022;20.458;2022-12-31T07:45:46;217.75;187.25;114.00
67714;PMS7003;54505;44.022;20.458;2022-12-31T07:48:23;250.50;204.75;114.00
67714;PMS7003;54505;44.022;20.458;2022-12-31T07:50:49;244.00;203.00;117.25
67714;PMS7003;54505;44.022;20.458;2022-12-31T07:53:15;230.50;195.50;116.25
67714;PMS7003;54505;44.022;20.458;2022-12-31T07:55:41;242.25;213.50;125.00
67714;PMS7003;54505;44.022;20.458;2022-12-31T08:01:11;247.75;209.00;120.75
67714;PMS7003;54505;44.022;20.458;2022-12-31T08:08:38;241.00;209.25;124.50
67714;PMS7003;54505;44.022;20.458;2022-12-31T08:11:22;248.00;206.25;119.00
67714;PMS7003;54505;44.022;20.458;2022-12-31T08:13:51;274.75;226.50;124.75
67714;PMS7003;54505;44.022;20.458;2022-12-31T08:16:18;319.00;268.50;147.50
67714;PMS7003;54505;44.022;20.458;2022-12-31T08:18:44;335.25;284.00;163.00
67714;PMS7003;54505;44.022;20.458;2022-12-31T08:21:19;410.00;329.75;188.75
67714;PMS7003;54505;44.022;20.458;2022-12-31T08:24:01;323.00;273.75;155.50
67714;PMS7003;54505;44.022;20.458;2022-12-31T08:26:34;300.50;254.25;145.25
67714;PMS7003;54505;44.022;20.458;2022-12-31T08:29:06;275.75;229.75;134.75
67714;PMS7003;54505;44.022;20.458;2022-12-31T08:31:39;300.25;245.25;140.00
67714;PMS7003;54505;44.022;20.458;2022-12-31T08:34:23;299.50;249.50;152.50
67714;PMS7003;54505;44.022;20.458;2022-12-31T08:37:09;314.75;261.75;154.25
67714;PMS7003;54505;44.022;20.458;2022-12-31T08:42:03;284.25;234.00;133.75
67714;PMS7003;54505;44.022;20.458;2022-12-31T08:44:38;295.00;254.75;150.75
67714;PMS7003;54505;44.022;20.458;2022-12-31T08:50:05;297.25;255.50;146.25
67714;PMS7003;54505;44.022;20.458;2022-12-31T08:52:31;290.00;271.00;150.25
67714;PMS7003;54505;44.022;20.458;2022-12-31T08:54:57;295.25;249.75;147.25
67714;PMS7003;54505;44.022;20.458;2022-12-31T09:02:28;247.00;207.25;118.25
67714;PMS7003;54505;44.022;20.458;2022-12-31T09:05:03;205.50;173.00;104.00
67714;PMS7003;54505;44.022;20.458;2022-12-31T09:07:37;207.75;186.25;111.00
67714;PMS7003;54505;44.022;20.458;2022-12-31T09:12:45;204.00;179.25;104.00
67714;PMS7003;54505;44.022;20.458;2022-12-31T09:15:20;222.50;196.00;115.50
67714;PMS7003;54505;44.022;20.458;2022-12-31T09:17:50;209.75;192.25;113.25
67714;PMS7003;54505;44.022;20.458;2022-12-31T09:20:29;222.75;190.25;106.00
67714;PMS7003;54505;44.022;20.458;2022-12-31T09:22:56;230.00;197.25;122.00
67714;PMS7003;54505;44.022;20.458;2022-12-31T09:25:22;223.75;200.00;123.25
67714;PMS7003;54505;44.022;20.458;2022-12-31T09:27:57;224.25;202.50;124.75
67714;PMS7003;54505;44.022;20.458;2022-12-31T09:30:25;248.00;209.25;125.75
67714;PMS7003;54505;44.022;20.458;2022-12-31T09:32:56;228.50;202.50;114.50
67714;PMS7003;54505;44.022;20.458;2022-12-31T09:37:59;164.25;137.75;86.75
67714;PMS7003;54505;44.022;20.458;2022-12-31T10:11:18;90.50;77.75;47.50
67714;PMS7003;54505;44.022;20.458;2022-12-31T10:14:29;79.75;65.50;44.75
67714;PMS7003;54505;44.022;20.458;2022-12-31T10:32:13;78.00;60.00;37.75
67714;PMS7003;54505;44.022;20.458;2022-12-31T10:34:51;71.25;53.75;34.50
67714;PMS7003;54505;44.022;20.458;2022-12-31T10:37:22;53.00;40.00;13.50
67714;PMS7003;54505;44.022;20.458;2022-12-31T10:39:59;71.25;54.00;36.50
67714;PMS7003;54505;44.022;20.458;2022-12-31T10:53:06;40.75;35.75;24.00
67714;PMS7003;54505;44.022;20.458;2022-12-31T11:00:47;38.00;34.75;24.00
67714;PMS7003;54505;44.022;20.458;2022-12-31T11:11:16;47.00;37.50;25.75
67714;PMS7003;54505;44.022;20.458;2022-12-31T11:18:56;49.25;37.00;24.00
67714;PMS7003;54505;44.022;20.458;2022-12-31T11:24:03;36.75;31.75;23.00
67714;PMS7003;54505;44.022;20.458;2022-12-31T11:29:30;38.25;33.00;22.25
67714;PMS7003;54505;44.022;20.458;2022-12-31T11:37:17;35.75;31.75;19.75
67714;PMS7003;54505;44.022;20.458;2022-12-31T11:44:50;28.75;25.75;18.75
67714;PMS7003;54505;44.022;20.458;2022-12-31T11:55:29;34.75;29.25;20.00
67714;PMS7003;54505;44.022;20.458;2022-12-31T12:00:11;45.25;36.25;26.00
67714;PMS7003;54505;44.022;20.458;2022-12-31T12:02:41;33.50;29.50;20.00
67714;PMS7003;54505;44.022;20.458;2022-12-31T12:05:07;27.00;23.50;18.00
67714;PMS7003;54505;44.022;20.458;2022-12-31T12:07:34;40.00;34.00;23.00
67714;PMS7003;54505;44.022;20.458;2022-12-31T12:10:01;44.50;36.75;25.00
67714;PMS7003;54505;44.022;20.458;2022-12-31T12:12:40;41.25;35.75;22.75
67714;PMS7003;54505;44.022;20.458;2022-12-31T12:15:07;42.25;34.75;23.00
67714;PMS7003;54505;44.022;20.458;2022-12-31T12:17:33;56.00;43.50;27.75
67714;PMS7003;54505;44.022;20.458;2022-12-31T12:20:00;53.50;42.25;27.75
67714;PMS7003;54505;44.022;20.458;2022-12-31T12:22:28;49.25;39.25;26.25
67714;PMS7003;54505;44.022;20.458;2022-12-31T12:25:01;54.50;44.25;28.50
67714;PMS7003;54505;44.022;20.458;2022-12-31T12:27:28;49.25;40.50;27.25
67714;PMS7003;54505;44.022;20.458;2022-12-31T12:29:54;50.75;38.25;26.50
67714;PMS7003;54505;44.022;20.458;2022-12-31T12:32:22;44.50;38.75;26.75
67714;PMS7003;54505;44.022;20.458;2022-12-31T12:34:49;45.50;39.00;27.25
67714;PMS7003;54505;44.022;20.458;2022-12-31T12:37:29;49.00;40.00;26.75
67714;PMS7003;54505;44.022;20.458;2022-12-31T12:40:13;50.00;42.50;27.50
67714;PMS7003;54505;44.022;20.458;2022-12-31T12:42:48;66.50;52.50;35.00
67714;PMS7003;54505;44.022;20.458;2022-12-31T12:45:16;37.50;33.75;22.00
67714;PMS7003;54505;44.022;20.458;2022-12-31T12:47:42;40.00;32.25;21.25
67714;PMS7003;54505;44.022;20.458;2022-12-31T12:50:19;31.75;29.75;20.00
67714;PMS7003;54505;44.022;20.458;2022-12-31T12:52:53;36.25;32.00;21.75
67714;PMS7003;54505;44.022;20.458;2022-12-31T12:58:11;42.25;34.25;23.00
67714;PMS7003;54505;44.022;20.458;2022-12-31T13:08:07;55.50;44.50;28.50
67714;PMS7003;54505;44.022;20.458;2022-12-31T13:23:59;70.75;57.25;35.75
67714;PMS7003;54505;44.022;20.458;2022-12-31T13:26:47;72.25;55.50;32.75
67714;PMS7003;54505;44.022;20.458;2022-12-31T13:29:19;72.75;55.00;35.25
67714;PMS7003;54505;44.022;20.458;2022-12-31T13:31:46;54.75;44.00;28.00
67714;PMS7003;54505;44.022;20.458;2022-12-31T13:34:15;53.50;43.00;29.00
67714;PMS7003;54505;44.022;20.458;2022-12-31T13:36:43;63.25;49.50;33.00
67714;PMS7003;54505;44.022;20.458;2022-12-31T13:39:14;73.00;58.00;37.75
67714;PMS7003;54505;44.022;20.458;2022-12-31T13:41:49;80.75;66.75;40.00
67714;PMS7003;54505;44.022;20.458;2022-12-31T13:44:23;77.75;65.75;46.00
67714;PMS7003;54505;44.022;20.458;2022-12-31T13:49:21;96.00;83.50;56.00
67714;PMS7003;54505;44.022;20.458;2022-12-31T13:51:51;83.25;72.00;45.00
67714;PMS7003;54505;44.022;20.458;2022-12-31T13:54:37;78.25;68.50;45.25
67714;PMS7003;54505;44.022;20.458;2022-12-31T13:59:47;76.00;57.00;36.25
67714;PMS7003;54505;44.022;20.458;2022-12-31T14:04:50;75.50;63.75;41.75
67714;PMS7003;54505;44.022;20.458;2022-12-31T14:07:19;104.75;91.00;54.00
67714;PMS7003;54505;44.022;20.458;2022-12-31T14:09:47;86.00;76.75;48.25
67714;PMS7003;54505;44.022;20.458;2022-12-31T14:12:19;99.75;80.50;50.75
67714;PMS7003;54505;44.022;20.458;2022-12-31T14:17:59;89.25;85.25;52.50
67714;PMS7003;54505;44.022;20.458;2022-12-31T14:20:13;124.25;111.00;65.50
67714;PMS7003;54505;44.022;20.458;2022-12-31T14:22:49;118.75;104.25;64.00
67714;PMS7003;54505;44.022;20.458;2022-12-31T14:25:19;195.75;153.50;79.75
67714;PMS7003;54505;44.022;20.458;2022-12-31T14:27:45;93.50;77.75;46.75
67714;PMS7003;54505;44.022;20.458;2022-12-31T14:30:14;80.00;64.00;39.75
67714;PMS7003;54505;44.022;20.458;2022-12-31T14:35:25;77.75;60.00;38.50
67714;PMS7003;54505;44.022;20.458;2022-12-31T14:48:37;71.00;55.00;36.00
67714;PMS7003;54505;44.022;20.458;2022-12-31T14:51:05;72.50;54.00;35.00
67714;PMS7003;54505;44.022;20.458;2022-12-31T14:53:31;82.00;69.75;43.25
67714;PMS7003;54505;44.022;20.458;2022-12-31T14:56:24;84.00;75.50;46.00
67714;PMS7003;54505;44.022;20.458;2022-12-31T14:58:55;91.75;81.25;50.00
67714;PMS7003;54505;44.022;20.458;2022-12-31T15:01:22;86.00;74.75;47.50
67714;PMS7003;54505;44.022;20.458;2022-12-31T15:03:50;108.50;93.50;56.00
67714;PMS7003;54505;44.022;20.458;2022-12-31T15:11:21;69.00;53.00;33.75
67714;PMS7003;54505;44.022;20.458;2022-12-31T15:16:43;87.75;75.00;49.75
67714;PMS7003;54505;44.022;20.458;2022-12-31T15:22:01;116.00;99.25;61.50
67714;PMS7003;54505;44.022;20.458;2022-12-31T15:24:28;123.50;115.00;69.25
67714;PMS7003;54505;44.022;20.458;2022-12-31T15:27:03;113.50;98.25;60.75
67714;PMS7003;54505;44.022;20.458;2022-12-31T15:29:33;101.00;88.00;55.75
67714;PMS7003;54505;44.022;20.458;2022-12-31T15:32:01;97.00;82.25;52.00
67714;PMS7003;54505;44.022;20.458;2022-12-31T15:34:29;101.50;88.75;56.00
67714;PMS7003;54505;44.022;20.458;2022-12-31T15:36:56;106.00;84.50;54.25
67714;PMS7003;54505;44.022;20.458;2022-12-31T15:39:41;130.75;108.00;69.25
67714;PMS7003;54505;44.022;20.458;2022-12-31T15:44:59;168.50;147.50;90.25
67714;PMS7003;54505;44.022;20.458;2022-12-31T15:47:34;187.50;167.00;101.75
67714;PMS7003;54505;44.022;20.458;2022-12-31T15:50:02;225.25;185.75;112.50
67714;PMS7003;54505;44.022;20.458;2022-12-31T15:52:50;236.75;202.50;119.50
67714;PMS7003;54505;44.022;20.458;2022-12-31T15:55:18;217.25;182.50;102.00
67714;PMS7003;54505;44.022;20.458;2022-12-31T15:57:46;230.50;195.25;113.00
67714;PMS7003;54505;44.022;20.458;2022-12-31T16:00:16;233.75;191.00;108.00
67714;PMS7003;54505;44.022;20.458;2022-12-31T16:02:42;381.00;317.00;169.50
67714;PMS7003;54505;44.022;20.458;2022-12-31T16:07:46;349.25;303.50;165.50
67714;PMS7003;54505;44.022;20.458;2022-12-31T16:10:16;378.00;313.00;170.00
67714;PMS7003;54505;44.022;20.458;2022-12-31T16:12:44;353.50;295.50;161.25
67714;PMS7003;54505;44.022;20.458;2022-12-31T16:15:21;358.50;298.00;173.50
67714;PMS7003;54505;44.022;20.458;2022-12-31T16:17:56;263.25;223.50;132.75
67714;PMS7003;54505;44.022;20.458;2022-12-31T16:20:23;270.50;221.25;130.50
67714;PMS7003;54505;44.022;20.458;2022-12-31T16:22:51;272.75;237.50;137.50
67714;PMS7003;54505;44.022;20.458;2022-12-31T16:25:17;284.00;245.50;145.00
67714;PMS7003;54505;44.022;20.458;2022-12-31T16:27:44;294.25;253.50;151.50
67714;PMS7003;54505;44.022;20.458;2022-12-31T16:32:45;276.50;238.75;142.75
67714;PMS7003;54505;44.022;20.458;2022-12-31T16:37:45;302.50;261.00;150.75
67714;PMS7003;54505;44.022;20.458;2022-12-31T16:42:39;322.25;272.25;156.50
67714;PMS7003;54505;44.022;20.458;2022-12-31T16:45:15;317.50;266.50;152.25
67714;PMS7003;54505;44.022;20.458;2022-12-31T16:47:42;253.25;218.00;129.00
67714;PMS7003;54505;44.022;20.458;2022-12-31T16:52:37;348.00;292.00;159.25
67714;PMS7003;54505;44.022;20.458;2022-12-31T16:55:20;372.00;300.50;162.25
67714;PMS7003;54505;44.022;20.458;2022-12-31T16:57:49;375.25;308.50;164.25
67714;PMS7003;54505;44.022;20.458;2022-12-31T17:00:20;353.25;295.25;167.00
67714;PMS7003;54505;44.022;20.458;2022-12-31T17:02:58;389.25;315.50;170.75
67714;PMS7003;54505;44.022;20.458;2022-12-31T17:05:25;266.50;215.25;128.50
67714;PMS7003;54505;44.022;20.458;2022-12-31T17:07:52;247.50;214.00;127.00
67714;PMS7003;54505;44.022;20.458;2022-12-31T17:10:22;274.25;233.50;134.75
67714;PMS7003;54505;44.022;20.458;2022-12-31T17:12:53;248.00;208.25;125.50
67714;PMS7003;54505;44.022;20.458;2022-12-31T17:15:20;324.50;277.25;152.00
67714;PMS7003;54505;44.022;20.458;2022-12-31T17:17:56;369.25;310.75;169.50
67714;PMS7003;54505;44.022;20.458;2022-12-31T17:20:26;472.00;363.33;195.33
67714;PMS7003;54505;44.022;20.458;2022-12-31T17:22:55;476.00;389.50;204.00
67714;PMS7003;54505;44.022;20.458;2022-12-31T17:25:23;431.75;360.75;189.75
67714;PMS7003;54505;44.022;20.458;2022-12-31T17:27:59;469.67;372.33;191.33
67714;PMS7003;54505;44.022;20.458;2022-12-31T17:33:01;353.25;297.00;162.00
67714;PMS7003;54505;44.022;20.458;2022-12-31T17:35:31;389.75;318.75;176.00
67714;PMS7003;54505;44.022;20.458;2022-12-31T17:40:42;455.00;364.00;195.00
67714;PMS7003;54505;44.022;20.458;2022-12-31T17:43:12;435.75;365.50;198.25
67714;PMS7003;54505;44.022;20.458;2022-12-31T17:45:38;477.25;395.50;202.75